Time;durP1;ratioP1;P1;durP2;ratioP2;P2;SDS_P1;SDS_P2;PMS_P1;PMS_P2;Temp;Humidity;BMP_temperature;BMP_pressure;BME280_temperature;BME280_humidity;BME280_pressure;Samples;Min_cycle;Max_cycle;Signal;HPM_P1;HPM_P2
2024/04/24 00:01:46;;;;;;;64.20;10.02;;;;;;;;;;5347285;26;20339;-69
2024/04/24 00:04:15;;;;;;;67.22;10.65;;;;;;;;;;5346911;26;20362;-69
2024/04/24 00:06:44;;;;;;;64.65;10.20;;;;;;;;;;5347046;26;20275;-69
2024/04/24 00:09:11;;;;;;;63.15;9.35;;;;;;;;;;5346726;26;20245;-69
2024/04/24 00:11:43;;;;;;;64.60;9.07;;;;;;;;;;5346073;26;20313;-70
2024/04/24 00:14:12;;;;;;;63.00;9.07;;;;;;;;;;5346838;26;20797;-69
2024/04/24 00:16:40;;;;;;;63.65;9.02;;;;;;;;;;5347118;26;20346;-70
2024/04/24 00:19:09;;;;;;;63.22;9.82;;;;;;;;;;5346740;26;20245;-69
2024/04/24 00:21:38;;;;;;;64.40;10.63;;;;;;;;;;5333082;26;20241;-69
2024/04/24 00:24:07;;;;;;;62.75;8.98;;;;;;;;;;5346844;26;20346;-69
2024/04/24 00:26:36;;;;;;;63.72;8.93;;;;;;;;;;5346242;26;20257;-69
2024/04/24 00:29:07;;;;;;;62.90;9.15;;;;;;;;;;5346884;26;20268;-69
2024/04/24 00:31:36;;;;;;;64.35;8.80;;;;;;;;;;5346683;26;20267;-69
2024/04/24 00:34:05;;;;;;;64.10;9.45;;;;;;;;;;5346724;26;20240;-69
2024/04/24 00:36:34;;;;;;;63.83;8.80;;;;;;;;;;5346201;26;20249;-69
2024/04/24 00:39:02;;;;;;;63.70;8.80;;;;;;;;;;5346164;26;20253;-69
2024/04/24 00:41:31;;;;;;;62.83;8.55;;;;;;;;;;5346248;26;20245;-69
2024/04/24 00:44:00;;;;;;;62.97;8.77;;;;;;;;;;5346468;26;20249;-69
2024/04/24 00:46:32;;;;;;;62.20;7.85;;;;;;;;;;5346328;26;20811;-69
2024/04/24 00:49:02;;;;;;;64.43;8.90;;;;;;;;;;5347123;26;20253;-69
2024/04/24 00:51:30;;;;;;;64.38;8.63;;;;;;;;;;5346707;26;20249;-69
2024/04/24 00:53:59;;;;;;;63.58;9.43;;;;;;;;;;5346455;26;20241;-69
2024/04/24 00:56:28;;;;;;;63.83;9.88;;;;;;;;;;5346378;26;20302;-69
2024/04/24 00:58:57;;;;;;;64.45;10.20;;;;;;;;;;5345989;26;20260;-70
2024/04/24 01:01:26;;;;;;;64.63;9.73;;;;;;;;;;5346803;26;20241;-69
2024/04/24 01:03:57;;;;;;;63.53;9.90;;;;;;;;;;5346595;26;20241;-70
2024/04/24 01:06:26;;;;;;;63.40;9.98;;;;;;;;;;5346496;26;20343;-69
2024/04/24 01:08:55;;;;;;;62.25;8.98;;;;;;;;;;5345939;26;20851;-69
2024/04/24 01:11:23;;;;;;;64.30;9.80;;;;;;;;;;5346066;26;20245;-69
2024/04/24 01:13:52;;;;;;;63.60;8.60;;;;;;;;;;5345795;26;20287;-69
2024/04/24 01:16:23;;;;;;;69.00;9.32;;;;;;;;;;5345819;26;20245;-69
2024/04/24 01:18:54;;;;;;;63.15;9.10;;;;;;;;;;5345294;26;20261;-69
2024/04/24 01:21:26;;;;;;;64.18;9.52;;;;;;;;;;5345849;26;20249;-69
2024/04/24 01:24:00;;;;;;;67.70;9.27;;;;;;;;;;5345906;26;20245;-69
2024/04/24 01:26:30;;;;;;;64.53;10.52;;;;;;;;;;5345278;26;20733;-69
2024/04/24 01:29:02;;;;;;;62.42;9.48;;;;;;;;;;5345427;26;20271;-69
2024/04/24 01:31:31;;;;;;;63.13;9.35;;;;;;;;;;5345883;26;20779;-69
2024/04/24 01:33:59;;;;;;;62.58;8.93;;;;;;;;;;5346053;26;20241;-69
2024/04/24 01:36:28;;;;;;;64.88;9.60;;;;;;;;;;5345751;26;20346;-69
2024/04/24 01:38:57;;;;;;;62.50;9.63;;;;;;;;;;5346060;26;20249;-69
2024/04/24 01:41:26;;;;;;;64.47;10.02;;;;;;;;;;5345830;26;20284;-69
2024/04/24 01:43:54;;;;;;;63.50;9.48;;;;;;;;;;5345552;26;20308;-69
2024/04/24 01:46:26;;;;;;;62.75;9.15;;;;;;;;;;5346065;26;20292;-69
2024/04/24 01:48:55;;;;;;;63.38;8.77;;;;;;;;;;5345050;26;20249;-69
2024/04/24 01:51:24;;;;;;;63.20;10.13;;;;;;;;;;5344820;26;20237;-69
2024/04/24 01:53:55;;;;;;;63.63;9.43;;;;;;;;;;5345458;26;20245;-69
2024/04/24 01:56:24;;;;;;;66.57;10.50;;;;;;;;;;5344817;26;20253;-69
2024/04/24 01:58:52;;;;;;;64.20;10.13;;;;;;;;;;5344633;26;20347;-69
2024/04/24 02:01:21;;;;;;;65.00;9.00;;;;;;;;;;5344682;26;20245;-69
2024/04/24 02:03:53;;;;;;;61.28;8.55;;;;;;;;;;5344704;26;20350;-70
2024/04/24 02:06:21;;;;;;;63.22;9.32;;;;;;;;;;5344484;26;20246;-69
2024/04/24 02:08:50;;;;;;;63.45;9.02;;;;;;;;;;5344493;26;20257;-69
2024/04/24 02:11:19;;;;;;;63.85;9.23;;;;;;;;;;5345194;26;20295;-69
2024/04/24 02:13:48;;;;;;;67.18;9.30;;;;;;;;;;5344262;26;20237;-69
2024/04/24 02:16:17;;;;;;;66.22;10.30;;;;;;;;;;5344325;26;20244;-69
2024/04/24 02:18:46;;;;;;;61.45;8.20;;;;;;;;;;5344172;26;20295;-69
2024/04/24 02:21:17;;;;;;;64.05;10.00;;;;;;;;;;5345115;26;20245;-69
2024/04/24 02:23:46;;;;;;;62.42;9.52;;;;;;;;;;5345105;26;20237;-69
2024/04/24 02:26:12;;;;;;;63.00;9.13;;;;;;;;;;5344812;26;20605;-69
2024/04/24 02:28:41;;;;;;;62.88;9.45;;;;;;;;;;5343878;26;20629;-69
2024/04/24 02:31:10;;;;;;;61.92;8.90;;;;;;;;;;5344516;26;20284;-69
2024/04/24 02:33:39;;;;;;;61.60;8.10;;;;;;;;;;5345866;26;20248;-69
2024/04/24 02:36:08;;;;;;;63.90;9.00;;;;;;;;;;5347974;26;20546;-69
2024/04/24 02:38:39;;;;;;;61.08;7.80;;;;;;;;;;5347655;26;20272;-69
2024/04/24 02:41:08;;;;;;;62.05;8.45;;;;;;;;;;5347836;26;20253;-69
2024/04/24 02:43:37;;;;;;;62.42;8.48;;;;;;;;;;5348352;26;20621;-69
2024/04/24 02:46:06;;;;;;;61.97;8.32;;;;;;;;;;5347845;26;20249;-69
2024/04/24 02:48:35;;;;;;;62.70;7.88;;;;;;;;;;5347548;26;20295;-69
2024/04/24 02:51:03;;;;;;;60.58;7.45;;;;;;;;;;5347695;26;20367;-69
2024/04/24 02:53:32;;;;;;;62.65;7.82;;;;;;;;;;5347345;26;20257;-69
2024/04/24 02:56:03;;;;;;;60.95;7.50;;;;;;;;;;5347991;26;20245;-69
2024/04/24 02:58:32;;;;;;;61.33;8.45;;;;;;;;;;5347534;26;20612;-69
2024/04/24 03:01:01;;;;;;;62.85;7.55;;;;;;;;;;5348587;26;20253;-69
2024/04/24 03:03:30;;;;;;;60.67;7.20;;;;;;;;;;5348003;26;20304;-69
2024/04/24 03:05:58;;;;;;;63.38;8.10;;;;;;;;;;5348483;26;20260;-69
2024/04/24 03:08:27;;;;;;;60.65;7.43;;;;;;;;;;5347331;26;20691;-69
2024/04/24 03:10:56;;;;;;;59.88;7.00;;;;;;;;;;5347826;26;20257;-69
2024/04/24 03:13:27;;;;;;;61.83;7.20;;;;;;;;;;5348076;26;20249;-69
2024/04/24 03:15:56;;;;;;;60.58;8.00;;;;;;;;;;5347847;26;20241;-69
2024/04/24 03:18:25;;;;;;;61.45;7.05;;;;;;;;;;5347854;26;20253;-69
2024/04/24 03:20:53;;;;;;;60.50;7.60;;;;;;;;;;5348014;26;20241;-69
2024/04/24 03:23:22;;;;;;;61.72;7.30;;;;;;;;;;5347834;26;20249;-69
2024/04/24 03:25:51;;;;;;;62.15;7.03;;;;;;;;;;5347557;26;20332;-69
2024/04/24 03:28:20;;;;;;;61.97;7.63;;;;;;;;;;5347452;26;20351;-69
2024/04/24 03:30:51;;;;;;;61.08;8.05;;;;;;;;;;5347774;26;20241;-69
2024/04/24 03:33:20;;;;;;;61.35;7.80;;;;;;;;;;5348401;26;20343;-69
2024/04/24 03:35:48;;;;;;;59.85;6.90;;;;;;;;;;5348109;26;20249;-69
2024/04/24 03:38:17;;;;;;;60.78;6.88;;;;;;;;;;5347253;26;20253;-69
2024/04/24 03:40:46;;;;;;;62.35;7.75;;;;;;;;;;5347211;26;20233;-69
2024/04/24 03:43:15;;;;;;;62.22;7.75;;;;;;;;;;5347136;26;20250;-69
2024/04/24 03:45:43;;;;;;;61.35;7.72;;;;;;;;;;5345397;26;20415;-69
2024/04/24 03:48:15;;;;;;;62.15;8.10;;;;;;;;;;5346537;26;20292;-69
2024/04/24 03:50:44;;;;;;;64.43;8.80;;;;;;;;;;5347122;26;20667;-69
2024/04/24 03:53:12;;;;;;;62.15;8.27;;;;;;;;;;5347169;26;20245;-69
2024/04/24 03:55:41;;;;;;;62.03;7.60;;;;;;;;;;5346971;26;20292;-69
2024/04/24 03:58:10;;;;;;;63.38;8.27;;;;;;;;;;5346322;26;20357;-69
2024/04/24 04:00:39;;;;;;;60.72;7.45;;;;;;;;;;5346913;26;20301;-69
2024/04/24 04:03:09;;;;;;;62.53;8.10;;;;;;;;;;5347339;26;20253;-69
2024/04/24 04:05:41;;;;;;;64.90;8.07;;;;;;;;;;5347124;26;20238;-69
2024/04/24 04:08:10;;;;;;;62.47;9.18;;;;;;;;;;5346401;26;20248;-69
2024/04/24 04:10:38;;;;;;;63.20;7.93;;;;;;;;;;5346878;26;20359;-69
2024/04/24 04:13:07;;;;;;;61.85;7.93;;;;;;;;;;5347181;26;20728;-69
2024/04/24 04:15:36;;;;;;;65.60;8.88;;;;;;;;;;5346795;26;20346;-69
2024/04/24 04:18:05;;;;;;;68.43;8.70;;;;;;;;;;5346350;26;20355;-69
2024/04/24 04:20:33;;;;;;;63.55;8.60;;;;;;;;;;5346260;26;20245;-69
2024/04/24 04:23:05;;;;;;;64.05;8.60;;;;;;;;;;5346714;26;20241;-69
2024/04/24 04:25:33;;;;;;;63.30;9.30;;;;;;;;;;5347282;26;20349;-69
2024/04/24 04:28:02;;;;;;;64.78;9.57;;;;;;;;;;5346659;26;20362;-69
2024/04/24 04:30:31;;;;;;;64.95;9.18;;;;;;;;;;5346570;26;20316;-69
2024/04/24 04:33:00;;;;;;;62.30;8.95;;;;;;;;;;5346700;26;20237;-69
2024/04/24 04:35:28;;;;;;;66.00;9.57;;;;;;;;;;5345532;26;20358;-69
2024/04/24 04:37:57;;;;;;;63.05;8.80;;;;;;;;;;5345881;26;20490;-69
2024/04/24 04:40:28;;;;;;;64.88;9.93;;;;;;;;;;5345686;26;20271;-69
2024/04/24 04:42:57;;;;;;;64.85;9.20;;;;;;;;;;5346242;26;20351;-69
2024/04/24 04:45:26;;;;;;;63.72;9.90;;;;;;;;;;5345554;26;20735;-69
2024/04/24 04:47:55;;;;;;;62.67;8.43;;;;;;;;;;5345431;26;20716;-69
2024/04/24 04:50:23;;;;;;;64.38;10.43;;;;;;;;;;5345756;26;20741;-69
2024/04/24 04:52:50;;;;;;;65.22;9.32;;;;;;;;;;5331946;26;20346;-69
2024/04/24 04:55:18;;;;;;;61.90;8.27;;;;;;;;;;5345724;26;20283;-69
2024/04/24 04:57:50;;;;;;;66.18;10.40;;;;;;;;;;5344681;26;20312;-69
2024/04/24 05:00:19;;;;;;;62.92;9.18;;;;;;;;;;5345372;26;20242;-69
2024/04/24 05:02:47;;;;;;;62.63;8.95;;;;;;;;;;5345481;26;21253;-69
2024/04/24 05:05:16;;;;;;;63.33;9.57;;;;;;;;;;5345320;26;20253;-69
2024/04/24 05:07:45;;;;;;;64.45;9.40;;;;;;;;;;5344899;26;20249;-69
2024/04/24 05:10:14;;;;;;;63.65;8.95;;;;;;;;;;5345230;26;20245;-69
2024/04/24 05:12:42;;;;;;;64.35;9.80;;;;;;;;;;5344791;26;20292;-70
2024/04/24 05:15:14;;;;;;;64.22;9.55;;;;;;;;;;5345391;26;20255;-69
2024/04/24 05:17:42;;;;;;;67.78;10.15;;;;;;;;;;5345200;26;20332;-69
2024/04/24 05:20:11;;;;;;;62.83;9.90;;;;;;;;;;5345854;26;20280;-69
2024/04/24 05:22:46;;;;;;;64.30;9.63;;;;;;;;;;5345667;26;20288;-69
2024/04/24 05:25:16;;;;;;;64.53;10.15;;;;;;;;;;5345569;26;20486;-69
2024/04/24 05:30:33;;;;;;;65.55;9.45;;;;;;;;;;5347638;26;20311;-70
2024/04/24 05:33:02;;;;;;;66.47;8.90;;;;;;;;;;5345358;26;20368;-70
2024/04/24 05:35:29;;;;;;;64.72;10.30;;;;;;;;;;5344954;26;20254;-69
2024/04/24 05:37:57;;;;;;;64.43;10.07;;;;;;;;;;5344462;26;20261;-70
2024/04/24 05:40:26;;;;;;;64.32;9.98;;;;;;;;;;5344755;26;20256;-70
2024/04/24 05:42:55;;;;;;;64.82;10.45;;;;;;;;;;5344939;26;20606;-70
2024/04/24 05:45:23;;;;;;;64.32;9.57;;;;;;;;;;5344531;26;20388;-70
2024/04/24 05:47:55;;;;;;;64.18;10.23;;;;;;;;;;5330254;26;20252;-70
2024/04/24 05:50:23;;;;;;;62.85;9.40;;;;;;;;;;5345135;26;20296;-70
2024/04/24 05:52:52;;;;;;;66.63;10.25;;;;;;;;;;5344543;26;20233;-70
2024/04/24 05:55:22;;;;;;;67.90;10.75;;;;;;;;;;5344687;26;20675;-70
2024/04/24 05:57:51;;;;;;;68.35;10.60;;;;;;;;;;5344139;26;20237;-70
2024/04/24 06:00:20;;;;;;;67.93;11.07;;;;;;;;;;5344392;26;20626;-70
2024/04/24 06:02:49;;;;;;;70.65;9.85;;;;;;;;;;5344287;26;20350;-70
2024/04/24 06:05:20;;;;;;;67.07;9.98;;;;;;;;;;5344381;26;20241;-70
2024/04/24 06:07:49;;;;;;;63.35;9.95;;;;;;;;;;5342765;26;20291;-70
2024/04/24 06:10:17;;;;;;;63.97;9.93;;;;;;;;;;5344390;26;20287;-70
2024/04/24 06:12:46;;;;;;;65.75;9.98;;;;;;;;;;5344333;26;20280;-70
2024/04/24 06:15:15;;;;;;;66.95;10.80;;;;;;;;;;5343920;26;20319;-70
2024/04/24 06:17:44;;;;;;;63.75;9.88;;;;;;;;;;5343552;26;20295;-70
2024/04/24 06:20:15;;;;;;;62.03;9.10;;;;;;;;;;5344207;26;20241;-69
2024/04/24 06:22:46;;;;;;;63.45;9.85;;;;;;;;;;5344037;26;20734;-70
2024/04/24 06:25:15;;;;;;;65.72;9.80;;;;;;;;;;5344012;26;20245;-70
2024/04/24 06:27:44;;;;;;;67.50;9.70;;;;;;;;;;5343288;26;20246;-69
2024/04/24 06:30:13;;;;;;;70.50;10.30;;;;;;;;;;5344324;26;20253;-69
2024/04/24 06:32:41;;;;;;;71.33;10.13;;;;;;;;;;5343778;26;20252;-69
2024/04/24 06:35:10;;;;;;;62.47;8.15;;;;;;;;;;5343891;26;20480;-70
2024/04/24 06:37:39;;;;;;;62.00;8.67;;;;;;;;;;5343260;26;20394;-69
2024/04/24 06:40:11;;;;;;;63.08;9.10;;;;;;;;;;5343699;26;20881;-70
2024/04/24 06:42:40;;;;;;;63.63;9.20;;;;;;;;;;5343576;26;20237;-70
2024/04/24 06:45:09;;;;;;;62.47;7.83;;;;;;;;;;5343744;26;21046;-70
2024/04/24 06:47:37;;;;;;;62.80;8.27;;;;;;;;;;5343668;26;20535;-70
2024/04/24 06:50:07;;;;;;;60.80;7.10;;;;;;;;;;5344461;26;21002;-70
2024/04/24 06:52:35;;;;;;;60.57;6.67;;;;;;;;;;5344367;26;20495;-70
2024/04/24 06:55:04;;;;;;;60.87;6.67;;;;;;;;;;5344668;26;21031;-70
2024/04/24 06:57:35;;;;;;;62.47;7.07;;;;;;;;;;5344356;26;20571;-70
2024/04/24 07:00:05;;;;;;;59.83;6.00;;;;;;;;;;5344860;26;20487;-70
2024/04/24 07:02:33;;;;;;;61.40;6.57;;;;;;;;;;5344548;26;20479;-70
2024/04/24 07:05:02;;;;;;;61.27;6.80;;;;;;;;;;5343865;26;20619;-70
2024/04/24 07:07:31;;;;;;;60.03;6.53;;;;;;;;;;5343849;26;20547;-70
2024/04/24 07:09:59;;;;;;;64.83;7.40;;;;;;;;;;5344937;26;20548;-70
2024/04/24 07:12:28;;;;;;;59.97;7.20;;;;;;;;;;5343600;26;20476;-70
2024/04/24 07:14:59;;;;;;;60.30;6.90;;;;;;;;;;5343619;26;20531;-70
2024/04/24 07:17:28;;;;;;;61.93;8.60;;;;;;;;;;5343915;26;20484;-70
2024/04/24 07:19:57;;;;;;;63.90;9.80;;;;;;;;;;5345952;26;20590;-70
2024/04/24 07:22:26;;;;;;;63.50;9.50;;;;;;;;;;5347541;26;20616;-70
2024/04/24 07:24:54;;;;;;;61.60;8.87;;;;;;;;;;5347396;26;20906;-70
2024/04/24 07:27:23;;;;;;;63.20;10.23;;;;;;;;;;5347148;26;20487;-70
2024/04/24 07:29:52;;;;;;;63.60;9.17;;;;;;;;;;5347190;26;20524;-70
2024/04/24 07:32:23;;;;;;;62.70;8.90;;;;;;;;;;5347721;26;20915;-70
2024/04/24 07:34:52;;;;;;;64.63;9.70;;;;;;;;;;5347277;26;20878;-70
2024/04/24 07:37:20;;;;;;;64.00;8.70;;;;;;;;;;5346315;26;20475;-70
2024/04/24 07:39:49;;;;;;;62.70;9.20;;;;;;;;;;5346873;26;20471;-70
2024/04/24 07:42:18;;;;;;;62.70;8.93;;;;;;;;;;5346457;26;20609;-70
2024/04/24 07:44:47;;;;;;;63.57;10.00;;;;;;;;;;5347519;26;20559;-70
2024/04/24 07:47:15;;;;;;;61.57;8.30;;;;;;;;;;5346625;26;20930;-70
2024/04/24 07:49:47;;;;;;;62.20;8.20;;;;;;;;;;5346298;26;20471;-70
2024/04/24 07:52:15;;;;;;;63.80;9.03;;;;;;;;;;5347247;26;20491;-70
2024/04/24 07:54:45;;;;;;;64.23;9.90;;;;;;;;;;5348053;26;20475;-70
2024/04/24 07:57:14;;;;;;;67.63;9.70;;;;;;;;;;5347245;26;20520;-70
2024/04/24 07:59:42;;;;;;;62.67;9.43;;;;;;;;;;5347355;26;20546;-70
2024/04/24 08:02:11;;;;;;;64.10;9.57;;;;;;;;;;5347085;26;20492;-70
2024/04/24 08:04:42;;;;;;;63.20;9.47;;;;;;;;;;5346817;26;20476;-70
2024/04/24 08:07:13;;;;;;;63.40;9.60;;;;;;;;;;5346283;26;21031;-70
2024/04/24 08:09:42;;;;;;;64.30;9.80;;;;;;;;;;5346248;26;20487;-70
2024/04/24 08:12:11;;;;;;;63.50;9.73;;;;;;;;;;5346096;26;20527;-70
2024/04/24 08:14:39;;;;;;;63.77;9.50;;;;;;;;;;5346090;26;20487;-70
2024/04/24 08:17:08;;;;;;;63.20;9.23;;;;;;;;;;5345800;26;20948;-70
2024/04/24 08:19:37;;;;;;;63.30;9.60;;;;;;;;;;5345943;26;20656;-70
2024/04/24 08:22:06;;;;;;;63.37;9.43;;;;;;;;;;5346350;26;20582;-70
2024/04/24 08:24:37;;;;;;;62.40;8.23;;;;;;;;;;5345893;26;20870;-70
2024/04/24 08:27:06;;;;;;;62.27;7.80;;;;;;;;;;5345598;26;20899;-70
2024/04/24 08:29:34;;;;;;;61.33;8.20;;;;;;;;;;5345657;26;20476;-70
2024/04/24 08:32:03;;;;;;;63.70;9.50;;;;;;;;;;5345035;26;20620;-70
2024/04/24 08:34:32;;;;;;;62.37;8.47;;;;;;;;;;5345782;26;20620;-70
2024/04/24 08:37:00;;;;;;;60.67;8.90;;;;;;;;;;5331152;26;20555;-70
2024/04/24 08:39:29;;;;;;;63.27;8.77;;;;;;;;;;5346024;26;20567;-70
2024/04/24 08:42:01;;;;;;;62.30;7.70;;;;;;;;;;5345352;26;20491;-70
2024/04/24 08:44:30;;;;;;;63.90;9.20;;;;;;;;;;5345933;26;20480;-70
2024/04/24 08:46:59;;;;;;;60.90;8.00;;;;;;;;;;5345240;26;20974;-70
2024/04/24 08:49:29;;;;;;;62.83;8.40;;;;;;;;;;5345261;26;20593;-71
2024/04/24 08:51:58;;;;;;;61.47;8.30;;;;;;;;;;5345101;26;20495;-70
2024/04/24 08:54:28;;;;;;;60.37;7.30;;;;;;;;;;5345423;26;20475;-70
2024/04/24 08:57:03;;;;;;;64.03;8.57;;;;;;;;;;5344662;26;21154;-70
2024/04/24 08:59:32;;;;;;;62.20;8.67;;;;;;;;;;5345944;26;20532;-71
2024/04/24 09:02:03;;;;;;;62.30;9.00;;;;;;;;;;5345616;26;20483;-71
2024/04/24 09:04:33;;;;;;;61.57;8.03;;;;;;;;;;5345892;26;20590;-70
2024/04/24 09:07:02;;;;;;;67.37;9.10;;;;;;;;;;5344951;26;21075;-71
2024/04/24 09:09:32;;;;;;;61.90;9.47;;;;;;;;;;5345329;26;20516;-70
2024/04/24 09:12:05;;;;;;;61.40;7.90;;;;;;;;;;5344854;26;20476;-70
2024/04/24 09:14:34;;;;;;;62.80;8.40;;;;;;;;;;5345203;26;20536;-71
2024/04/24 09:17:04;;;;;;;61.27;7.80;;;;;;;;;;5344632;26;20480;-70
2024/04/24 09:19:33;;;;;;;62.47;8.50;;;;;;;;;;5345279;26;20612;-71
2024/04/24 09:22:03;;;;;;;63.00;8.97;;;;;;;;;;5344938;26;20871;-71
2024/04/24 09:24:32;;;;;;;62.47;7.57;;;;;;;;;;5345529;26;20543;-71
2024/04/24 09:27:04;;;;;;;61.23;8.67;;;;;;;;;;5344352;26;20479;-70
2024/04/24 09:29:33;;;;;;;65.53;9.20;;;;;;;;;;5345046;26;20528;-70
2024/04/24 09:32:01;;;;;;;61.00;8.30;;;;;;;;;;5345285;26;20520;-71
2024/04/24 09:34:30;;;;;;;61.50;7.63;;;;;;;;;;5345082;26;20883;-70
2024/04/24 09:36:59;;;;;;;62.40;7.83;;;;;;;;;;5344637;26;20599;-71
2024/04/24 09:39:26;;;;;;;62.37;8.50;;;;;;;;;;5344564;26;20568;-71
2024/04/24 09:41:54;;;;;;;63.00;9.37;;;;;;;;;;5344194;26;20483;-70
2024/04/24 09:44:28;;;;;;;63.03;9.00;;;;;;;;;;5343749;26;20991;-71
2024/04/24 09:46:54;;;;;;;61.47;8.10;;;;;;;;;;5344427;26;20539;-71
2024/04/24 09:49:23;;;;;;;62.17;8.67;;;;;;;;;;5344125;26;20611;-70
2024/04/24 09:51:52;;;;;;;62.60;9.30;;;;;;;;;;5344959;26;20536;-70
2024/04/24 09:54:23;;;;;;;61.37;7.77;;;;;;;;;;5345449;26;20484;-70
2024/04/24 09:56:56;;;;;;;62.57;8.90;;;;;;;;;;5345009;26;20828;-70
2024/04/24 09:59:30;;;;;;;61.43;7.97;;;;;;;;;;5344627;26;20535;-70
2024/04/24 10:02:04;;;;;;;64.53;9.60;;;;;;;;;;5345004;26;20528;-70
2024/04/24 10:04:34;;;;;;;65.17;9.73;;;;;;;;;;5344803;26;20580;-69
2024/04/24 10:07:04;;;;;;;63.07;8.87;;;;;;;;;;5343886;26;21159;-69
2024/04/24 10:09:34;;;;;;;64.73;10.50;;;;;;;;;;5344840;26;20591;-68
2024/04/24 10:12:05;;;;;;;62.00;8.83;;;;;;;;;;5344577;26;20558;-70
2024/04/24 10:14:37;;;;;;;61.37;8.37;;;;;;;;;;5345089;26;20551;-69
2024/04/24 10:17:08;;;;;;;65.40;10.70;;;;;;;;;;5344394;26;20656;-69
2024/04/24 10:19:37;;;;;;;61.90;9.30;;;;;;;;;;5344681;26;20590;-69
2024/04/24 10:22:06;;;;;;;64.70;9.13;;;;;;;;;;5330363;26;21015;-69
2024/04/24 10:24:36;;;;;;;64.80;10.97;;;;;;;;;;5344564;26;20969;-70
2024/04/24 10:27:02;;;;;;;65.60;10.13;;;;;;;;;;5343785;26;21046;-69
2024/04/24 10:29:32;;;;;;;65.17;10.57;;;;;;;;;;5344314;26;20539;-70
2024/04/24 10:32:03;;;;;;;61.47;9.23;;;;;;;;;;5344111;26;20595;-70
2024/04/24 10:34:33;;;;;;;62.57;10.07;;;;;;;;;;5344512;26;20582;-70
2024/04/24 10:37:01;;;;;;;65.13;10.90;;;;;;;;;;5343954;26;20619;-69
2024/04/24 10:39:30;;;;;;;64.90;11.00;;;;;;;;;;5344262;26;20878;-70
2024/04/24 10:41:59;;;;;;;65.53;10.90;;;;;;;;;;5344376;26;20606;-70
2024/04/24 10:44:28;;;;;;;66.60;11.60;;;;;;;;;;5343941;26;20495;-69
2024/04/24 10:46:58;;;;;;;63.47;11.00;;;;;;;;;;5344004;26;20483;-70
2024/04/24 10:49:32;;;;;;;67.27;12.13;;;;;;;;;;5344175;26;20540;-70
2024/04/24 10:52:00;;;;;;;64.53;11.17;;;;;;;;;;5344249;26;20964;-70
2024/04/24 10:54:32;;;;;;;69.20;11.80;;;;;;;;;;5345104;26;20554;-70
2024/04/24 10:57:01;;;;;;;67.10;12.90;;;;;;;;;;5347073;26;20544;-69
2024/04/24 10:59:33;;;;;;;66.03;13.00;;;;;;;;;;5347435;26;20468;-70
2024/04/24 11:02:13;;;;;;;65.00;11.93;;;;;;;;;;5347637;26;20471;-70
2024/04/24 11:04:46;;;;;;;65.30;10.83;;;;;;;;;;5347597;26;20594;-70
2024/04/24 11:07:17;;;;;;;68.87;11.83;;;;;;;;;;5347258;26;21014;-70
2024/04/24 11:09:47;;;;;;;66.47;11.90;;;;;;;;;;5347408;26;20965;-70
2024/04/24 11:12:16;;;;;;;66.13;12.43;;;;;;;;;;5347253;26;21086;-70
2024/04/24 11:14:45;;;;;;;67.47;13.47;;;;;;;;;;5347096;26;20475;-70
2024/04/24 11:17:14;;;;;;;67.17;11.47;;;;;;;;;;5347076;26;20802;-70
2024/04/24 11:19:45;;;;;;;67.83;12.37;;;;;;;;;;5347244;26;20606;-70
2024/04/24 11:22:14;;;;;;;66.23;12.97;;;;;;;;;;5347154;26;20610;-70
2024/04/24 11:24:42;;;;;;;66.13;13.70;;;;;;;;;;5347006;26;20547;-70
2024/04/24 11:27:11;;;;;;;66.00;12.37;;;;;;;;;;5346588;26;20571;-70
2024/04/24 11:29:40;;;;;;;63.97;11.73;;;;;;;;;;5346913;26;20484;-70
2024/04/24 11:32:10;;;;;;;66.83;13.10;;;;;;;;;;5346864;26;21083;-70
2024/04/24 11:34:39;;;;;;;66.70;12.27;;;;;;;;;;5347175;26;20550;-70
2024/04/24 11:37:11;;;;;;;67.40;13.10;;;;;;;;;;5346081;26;20604;-69
2024/04/24 11:39:40;;;;;;;68.17;13.23;;;;;;;;;;5346654;26;20495;-69
2024/04/24 11:42:09;;;;;;;67.20;13.27;;;;;;;;;;5346547;26;20555;-69
2024/04/24 11:44:38;;;;;;;67.43;14.10;;;;;;;;;;5346494;26;20537;-70
2024/04/24 11:47:07;;;;;;;66.73;11.50;;;;;;;;;;5346009;26;20522;-69
2024/04/24 11:49:36;;;;;;;67.70;13.87;;;;;;;;;;5346577;26;20539;-69
2024/04/24 11:52:08;;;;;;;67.90;12.47;;;;;;;;;;5346224;26;20536;-69
2024/04/24 11:54:39;;;;;;;67.60;13.40;;;;;;;;;;5347090;26;20623;-69
2024/04/24 11:57:08;;;;;;;69.30;15.50;;;;;;;;;;5346435;26;20491;-69
2024/04/24 11:59:44;;;;;;;66.47;12.50;;;;;;;;;;5346413;26;20491;-69
2024/04/24 12:02:13;;;;;;;66.83;12.93;;;;;;;;;;5346475;26;20487;-69
2024/04/24 12:04:46;;;;;;;64.03;11.80;;;;;;;;;;5346529;26;20559;-69
2024/04/24 12:07:14;;;;;;;66.13;12.80;;;;;;;;;;5344496;26;20476;-69
2024/04/24 12:09:46;;;;;;;64.83;12.70;;;;;;;;;;5346379;26;20579;-69
2024/04/24 12:12:15;;;;;;;64.43;12.17;;;;;;;;;;5346326;26;20491;-70
2024/04/24 12:14:43;;;;;;;65.80;11.30;;;;;;;;;;5346258;26;20488;-69
2024/04/24 12:17:12;;;;;;;65.37;10.77;;;;;;;;;;5346017;26;20893;-69
2024/04/24 12:19:43;;;;;;;66.17;12.80;;;;;;;;;;5346450;26;20486;-70
2024/04/24 12:22:12;;;;;;;65.83;11.00;;;;;;;;;;5346296;26;20520;-70
2024/04/24 12:24:40;;;;;;;63.87;10.30;;;;;;;;;;5346297;26;20484;-70
2024/04/24 12:27:12;;;;;;;63.90;10.97;;;;;;;;;;5345602;26;20487;-70
2024/04/24 12:29:41;;;;;;;64.43;11.00;;;;;;;;;;5345986;26;20616;-68
2024/04/24 12:32:10;;;;;;;64.10;10.37;;;;;;;;;;5345917;26;20498;-68
2024/04/24 12:34:38;;;;;;;62.40;10.13;;;;;;;;;;5346255;26;21058;-68
2024/04/24 12:37:07;;;;;;;63.20;10.37;;;;;;;;;;5345529;26;20636;-68
2024/04/24 12:39:36;;;;;;;62.13;10.03;;;;;;;;;;5346228;26;20831;-71
2024/04/24 12:42:05;;;;;;;63.47;11.17;;;;;;;;;;5345814;26;20527;-68
2024/04/24 12:44:36;;;;;;;63.37;10.17;;;;;;;;;;5346205;26;20483;-71
2024/04/24 12:47:05;;;;;;;66.40;11.03;;;;;;;;;;5345317;26;20627;-71
2024/04/24 12:49:35;;;;;;;67.60;11.13;;;;;;;;;;5345729;26;20483;-71
2024/04/24 12:52:04;;;;;;;64.17;11.00;;;;;;;;;;5345654;26;20528;-71
2024/04/24 12:54:35;;;;;;;63.17;9.27;;;;;;;;;;5345456;26;20467;-71
2024/04/24 12:57:04;;;;;;;62.40;9.43;;;;;;;;;;5345243;26;20471;-71
2024/04/24 12:59:32;;;;;;;62.70;9.00;;;;;;;;;;5345468;26;20490;-68
2024/04/24 13:02:04;;;;;;;62.30;9.10;;;;;;;;;;5345596;26;20611;-68
2024/04/24 13:04:33;;;;;;;63.00;10.07;;;;;;;;;;5345502;26;20531;-70
2024/04/24 13:07:01;;;;;;;63.00;9.17;;;;;;;;;;5344796;26;20530;-69
2024/04/24 13:09:30;;;;;;;63.53;9.57;;;;;;;;;;5345315;26;20613;-69
2024/04/24 13:11:59;;;;;;;63.37;9.63;;;;;;;;;;5345341;26;20602;-69
2024/04/24 13:14:27;;;;;;;62.20;6.43;;;;;;;;;;5345192;26;20730;-69
2024/04/24 13:16:58;;;;;;;60.37;5.50;;;;;;;;;;5344473;26;20547;-69
2024/04/24 13:19:29;;;;;;;57.87;4.90;;;;;;;;;;5345389;26;20544;-69
2024/04/24 13:21:58;;;;;;;58.27;4.13;;;;;;;;;;5345575;26;20483;-69
2024/04/24 13:24:27;;;;;;;58.90;4.83;;;;;;;;;;5345974;26;20528;-69
2024/04/24 13:26:56;;;;;;;57.43;4.20;;;;;;;;;;5345251;26;20610;-69
2024/04/24 13:29:24;;;;;;;63.27;6.77;;;;;;;;;;5346043;26;21137;-69
2024/04/24 13:31:53;;;;;;;57.67;4.40;;;;;;;;;;5345950;26;20524;-68
2024/04/24 13:34:22;;;;;;;58.50;4.70;;;;;;;;;;5345678;26;20484;-68
2024/04/24 13:36:53;;;;;;;60.17;5.70;;;;;;;;;;5345118;26;20594;-68
2024/04/24 13:39:22;;;;;;;58.93;4.37;;;;;;;;;;5344917;26;20563;-68
2024/04/24 13:41:51;;;;;;;58.17;4.30;;;;;;;;;;5345333;26;20479;-68
2024/04/24 13:44:20;;;;;;;58.30;4.93;;;;;;;;;;5344971;26;20549;-68
2024/04/24 13:46:48;;;;;;;59.50;5.37;;;;;;;;;;5345317;26;20832;-68
2024/04/24 13:49:17;;;;;;;59.30;5.90;;;;;;;;;;5331853;26;21110;-67
2024/04/24 13:51:46;;;;;;;58.47;5.57;;;;;;;;;;5345651;26;20491;-68
2024/04/24 13:54:18;;;;;;;59.00;5.77;;;;;;;;;;5345885;26;20472;-68
2024/04/24 13:56:47;;;;;;;57.63;5.20;;;;;;;;;;5346031;26;20527;-67
2024/04/24 13:59:15;;;;;;;61.50;6.57;;;;;;;;;;5345457;26;20491;-67
2024/04/24 14:01:44;;;;;;;61.20;6.63;;;;;;;;;;5346385;26;20483;-68
2024/04/24 14:04:13;;;;;;;58.87;5.80;;;;;;;;;;5345959;26;20540;-68
2024/04/24 14:06:42;;;;;;;57.87;4.80;;;;;;;;;;5345660;26;20488;-67
2024/04/24 14:09:10;;;;;;;58.03;5.10;;;;;;;;;;5345826;26;20832;-67
2024/04/24 14:11:42;;;;;;;57.70;4.40;;;;;;;;;;5345564;26;20475;-67
2024/04/24 14:14:10;;;;;;;57.60;5.13;;;;;;;;;;5345339;26;20520;-67
2024/04/24 14:16:39;;;;;;;60.93;4.53;;;;;;;;;;5344982;26;20468;-67
2024/04/24 14:19:08;;;;;;;58.63;4.90;;;;;;;;;;5344863;26;20475;-68
2024/04/24 14:21:37;;;;;;;58.10;4.17;;;;;;;;;;5344942;26;20479;-67
2024/04/24 14:24:06;;;;;;;57.53;4.20;;;;;;;;;;5345286;26;20479;-68
2024/04/24 14:26:35;;;;;;;57.80;4.30;;;;;;;;;;5344972;26;20587;-68
2024/04/24 14:29:06;;;;;;;59.00;3.90;;;;;;;;;;5345974;26;20468;-68
2024/04/24 14:31:35;;;;;;;58.50;4.87;;;;;;;;;;5348264;26;21145;-67
2024/04/24 14:34:03;;;;;;;59.27;4.83;;;;;;;;;;5347876;26;20467;-68
2024/04/24 14:36:32;;;;;;;57.97;4.53;;;;;;;;;;5348046;26;21065;-67
2024/04/24 14:39:01;;;;;;;56.90;3.67;;;;;;;;;;5347585;26;20527;-68
2024/04/24 14:41:30;;;;;;;60.83;4.17;;;;;;;;;;5348146;26;20596;-67